createdAt,value
2022-08-03T00:00:36.278Z,78.20
2022-08-03T00:03:04.653Z,78.20
2022-08-03T00:05:34.009Z,78.80
2022-08-03T00:08:02.501Z,79.30
2022-08-03T00:10:32.213Z,79.60
2022-08-03T00:13:00.498Z,79.90
2022-08-03T00:15:28.848Z,79.30
2022-08-03T00:17:57.196Z,79.70
2022-08-03T00:20:25.815Z,79.80
2022-08-03T00:22:54.213Z,79.90
2022-08-03T00:25:22.635Z,80.10
2022-08-03T00:27:52.424Z,80.50
2022-08-03T00:30:20.821Z,80.80
2022-08-03T00:32:49.607Z,81.20
2022-08-03T00:35:36.758Z,80.90
2022-08-03T00:38:05.652Z,80.40
2022-08-03T00:40:34.472Z,79.70
2022-08-03T00:43:08.219Z,80.10
2022-08-03T00:45:41.326Z,79.90
2022-08-03T00:48:19.803Z,80.00
2022-08-03T00:51:00.612Z,80.40
2022-08-03T00:53:29.435Z,80.10
2022-08-03T00:55:57.774Z,80.20
2022-08-03T00:58:27.512Z,80.00
2022-08-03T01:00:55.903Z,80.30
2022-08-03T01:03:24.296Z,80.50
2022-08-03T01:06:00.645Z,80.40
2022-08-03T01:08:38.660Z,80.90
2022-08-03T01:11:13.741Z,81.90
2022-08-03T01:14:03.863Z,81.80
2022-08-03T01:16:50.848Z,81.90
2022-08-03T01:19:37.740Z,81.70
2022-08-03T01:22:38.683Z,82.00
2022-08-03T01:25:16.472Z,82.20
2022-08-03T01:27:58.479Z,82.00
2022-08-03T01:30:33.392Z,81.80
2022-08-03T01:33:06.040Z,82.40
2022-08-03T01:35:40.238Z,82.30
2022-08-03T01:38:13.503Z,81.90
2022-08-03T01:40:44.556Z,82.10
2022-08-03T01:43:55.446Z,81.90
2022-08-03T01:46:07.070Z,82.40
2022-08-03T01:48:37.722Z,82.30
2022-08-03T01:51:07.350Z,82.40
2022-08-03T01:53:36.388Z,82.40
2022-08-03T01:56:07.110Z,82.60
2022-08-03T01:58:37.872Z,82.80
2022-08-03T02:01:08.150Z,83.10
2022-08-03T02:04:00.102Z,83.50
2022-08-03T02:07:00.464Z,83.60
2022-08-03T02:09:21.769Z,83.50
2022-08-03T02:11:52.392Z,83.40
2022-08-03T02:14:22.521Z,83.30
2022-08-03T02:16:52.854Z,83.60
2022-08-03T02:19:21.507Z,83.70
2022-08-03T02:21:56.374Z,83.60
2022-08-03T02:24:30.801Z,83.30
2022-08-03T02:27:01.357Z,83.20
2022-08-03T02:29:39.801Z,82.80
2022-08-03T02:32:15.809Z,83.00
2022-08-03T02:34:48.736Z,83.20
2022-08-03T02:37:21.084Z,82.90
2022-08-03T02:39:53.418Z,83.00
2022-08-03T02:42:24.571Z,82.80
2022-08-03T02:44:57.631Z,82.60
2022-08-03T02:47:53.255Z,82.70
2022-08-03T02:50:20.138Z,82.60
2022-08-03T02:52:50.113Z,83.10
2022-08-03T02:55:19.385Z,82.70
2022-08-03T02:57:49.236Z,82.30
2022-08-03T03:00:27.290Z,82.70
2022-08-03T03:03:00.474Z,82.80
2022-08-03T03:05:54.594Z,82.40
2022-08-03T03:08:28.350Z,82.60
2022-08-03T03:10:59.808Z,82.10
2022-08-03T03:13:29.762Z,82.30
2022-08-03T03:16:01.793Z,82.60
2022-08-03T03:18:33.581Z,83.00
2022-08-03T03:21:04.708Z,82.90
2022-08-03T03:23:34.016Z,83.10
2022-08-03T03:26:03.112Z,83.30
2022-08-03T03:28:33.090Z,83.30
2022-08-03T03:31:02.720Z,83.50
2022-08-03T03:33:32.429Z,83.30
2022-08-03T03:36:01.108Z,84.00
2022-08-03T03:38:29.821Z,84.40
2022-08-03T03:40:58.278Z,83.90
2022-08-03T03:43:26.890Z,84.30
2022-08-03T03:45:56.959Z,84.20
2022-08-03T03:48:26.401Z,84.20
2022-08-03T03:50:57.289Z,84.20
2022-08-03T03:53:26.012Z,84.40
2022-08-03T03:55:59.774Z,84.40
2022-08-03T03:58:32.977Z,84.40
2022-08-03T04:01:01.844Z,84.00
2022-08-03T04:03:30.579Z,83.80
2022-08-03T04:06:17.713Z,83.90
2022-08-03T04:09:04.081Z,83.90
2022-08-03T04:11:40.128Z,83.90
2022-08-03T04:14:12.639Z,84.40
2022-08-03T04:16:45.665Z,83.90
2022-08-03T04:19:23.079Z,84.00
2022-08-03T04:21:57.668Z,84.30
2022-08-03T04:24:33.174Z,84.30
2022-08-03T04:27:04.395Z,84.40
2022-08-03T04:29:38.655Z,84.20
2022-08-03T04:32:16.879Z,84.10
2022-08-03T04:34:46.089Z,84.60
2022-08-03T04:37:26.907Z,85.10
2022-08-03T04:39:58.366Z,85.30
2022-08-03T04:42:28.102Z,85.50
2022-08-03T04:45:01.364Z,85.40
2022-08-03T04:47:32.298Z,85.80
2022-08-03T04:50:02.654Z,85.40
2022-08-03T04:52:32.646Z,85.70
2022-08-03T04:55:01.018Z,85.50
2022-08-03T04:57:29.452Z,85.60
2022-08-03T05:00:02.504Z,85.50
2022-08-03T05:02:32.876Z,84.90
2022-08-03T05:05:01.387Z,84.50
2022-08-03T05:07:36.582Z,83.90
2022-08-03T05:10:10.151Z,82.80
2022-08-03T05:12:46.481Z,81.60
2022-08-03T05:15:15.007Z,80.70
2022-08-03T05:17:43.340Z,80.40
2022-08-03T05:20:12.976Z,79.50
2022-08-03T05:22:42.664Z,78.80
2022-08-03T05:25:17.328Z,79.00
2022-08-03T05:27:48.220Z,78.70
2022-08-03T05:30:31.160Z,78.60
2022-08-03T05:33:03.700Z,79.00
2022-08-03T05:35:56.847Z,79.50
2022-08-03T05:38:28.826Z,79.10
2022-08-03T05:41:22.813Z,79.40
2022-08-03T05:43:51.379Z,79.40
2022-08-03T05:46:20.304Z,79.30
2022-08-03T05:48:48.625Z,79.00
2022-08-03T05:51:16.988Z,79.00
2022-08-03T05:53:46.917Z,79.20
2022-08-03T05:56:16.540Z,78.70
2022-08-03T05:58:47.135Z,78.80
2022-08-03T06:01:16.143Z,78.60
2022-08-03T06:03:44.530Z,78.30
2022-08-03T06:06:12.947Z,78.00
2022-08-03T06:08:42.576Z,78.30
2022-08-03T06:11:12.683Z,77.50
2022-08-03T06:13:41.253Z,78.10
2022-08-03T06:16:09.696Z,77.60
2022-08-03T06:18:38.817Z,76.70
2022-08-03T06:21:11.055Z,77.10
2022-08-03T06:23:53.179Z,76.80
2022-08-03T06:26:25.882Z,76.00
2022-08-03T06:28:54.971Z,76.30
2022-08-03T06:31:33.289Z,76.50
2022-08-03T06:34:32.323Z,75.20
2022-08-03T06:36:53.021Z,75.70
2022-08-03T06:39:23.444Z,75.80
2022-08-03T06:41:54.298Z,75.60
2022-08-03T06:44:22.672Z,74.60
2022-08-03T06:46:51.860Z,74.40
2022-08-03T06:49:20.279Z,74.40
2022-08-03T06:52:05.110Z,74.30
2022-08-03T06:54:36.884Z,74.50
2022-08-03T06:57:08.328Z,73.90
2022-08-03T07:00:07.598Z,73.60
2022-08-03T07:02:25.001Z,73.70
2022-08-03T07:04:57.148Z,74.10
2022-08-03T07:07:25.542Z,73.00
2022-08-03T07:09:57.635Z,72.40
2022-08-03T07:12:29.506Z,71.10
2022-08-03T07:15:02.308Z,70.80
2022-08-03T07:17:32.234Z,70.70
2022-08-03T07:20:02.252Z,70.30
2022-08-03T07:22:30.765Z,69.40
2022-08-03T07:24:59.319Z,69.10
2022-08-03T07:27:30.333Z,68.60
2022-08-03T07:29:59.902Z,68.00
2022-08-03T07:32:31.496Z,67.10
2022-08-03T07:35:01.204Z,67.50
2022-08-03T07:37:30.645Z,66.70
2022-08-03T07:39:59.300Z,66.20
2022-08-03T07:42:29.323Z,65.20
2022-08-03T07:44:58.860Z,65.00
2022-08-03T07:47:34.845Z,65.40
2022-08-03T07:50:08.585Z,65.10
2022-08-03T07:52:49.778Z,65.00
2022-08-03T07:55:19.981Z,64.30
2022-08-03T07:58:01.205Z,64.80
2022-08-03T08:00:29.735Z,63.50
2022-08-03T08:02:58.023Z,63.50
2022-08-03T08:05:26.735Z,63.10
2022-08-03T08:07:55.408Z,62.70
2022-08-03T08:10:24.422Z,63.60
2022-08-03T08:12:54.998Z,62.30
2022-08-03T08:15:23.329Z,61.40
2022-08-03T08:17:56.262Z,62.40
2022-08-03T08:20:31.372Z,61.30
2022-08-03T08:23:02.897Z,61.00
2022-08-03T08:25:33.949Z,60.70
2022-08-03T08:28:30.573Z,61.10
2022-08-03T08:30:52.791Z,60.40
2022-08-03T08:33:22.826Z,59.80
2022-08-03T08:35:54.283Z,59.30
2022-08-03T08:38:22.869Z,58.50
2022-08-03T08:40:51.453Z,58.40
2022-08-03T08:43:21.061Z,56.20
2022-08-03T08:45:51.836Z,55.70
2022-08-03T08:48:24.296Z,55.80
2022-08-03T08:50:55.336Z,54.70
2022-08-03T08:53:27.186Z,55.80
2022-08-03T08:56:01.410Z,54.40
2022-08-03T08:58:37.180Z,53.60
2022-08-03T09:01:06.011Z,54.20
2022-08-03T09:03:35.250Z,53.40
2022-08-03T09:06:04.176Z,53.20
2022-08-03T09:08:33.953Z,52.80
2022-08-03T09:11:03.285Z,53.90
2022-08-03T09:13:34.219Z,53.80
2022-08-03T09:16:14.286Z,52.80
2022-08-03T09:18:43.341Z,51.90
2022-08-03T09:21:36.260Z,51.50
2022-08-03T09:24:16.374Z,51.70
2022-08-03T09:26:53.800Z,52.40
2022-08-03T09:29:24.412Z,51.80
2022-08-03T09:32:03.234Z,50.60
2022-08-03T09:34:32.050Z,51.40
2022-08-03T09:37:00.331Z,51.20
2022-08-03T09:39:41.508Z,51.10
2022-08-03T09:42:15.423Z,50.30
2022-08-03T09:44:47.331Z,50.10
2022-08-03T09:47:18.646Z,49.30
2022-08-03T09:50:02.229Z,50.20
2022-08-03T09:52:48.330Z,49.90
2022-08-03T09:56:31.634Z,48.70
2022-08-03T09:58:10.457Z,49.80
2022-08-03T10:00:57.076Z,48.20
2022-08-03T10:03:27.058Z,47.00
2022-08-03T10:05:59.791Z,46.30
2022-08-03T10:08:28.802Z,46.80
2022-08-03T10:10:58.760Z,46.10
2022-08-03T10:13:27.184Z,47.20
2022-08-03T10:16:23.118Z,47.40
2022-08-03T10:18:45.102Z,46.50
2022-08-03T10:21:20.134Z,45.80
2022-08-03T10:23:48.811Z,45.50
2022-08-03T10:26:23.967Z,46.40
2022-08-03T10:28:56.345Z,46.30
2022-08-03T10:31:27.672Z,45.50
2022-08-03T10:34:00.449Z,45.70
2022-08-03T10:36:32.086Z,44.80
2022-08-03T10:39:01.515Z,43.50
2022-08-03T10:41:37.424Z,43.40
2022-08-03T10:44:09.505Z,43.50
2022-08-03T10:46:44.979Z,43.80
2022-08-03T10:49:15.917Z,41.60
2022-08-03T10:51:46.544Z,43.20
2022-08-03T10:55:03.255Z,42.60
2022-08-03T10:57:47.474Z,41.20
2022-08-03T11:00:18.975Z,38.40
2022-08-03T11:03:10.241Z,38.60
2022-08-03T11:05:43.785Z,37.80
2022-08-03T11:08:30.371Z,39.00
2022-08-03T11:11:02.701Z,37.00
2022-08-03T11:13:33.885Z,36.70
2022-08-03T11:16:21.919Z,36.80
2022-08-03T11:19:00.918Z,36.60
2022-08-03T11:21:59.872Z,36.60
2022-08-03T11:25:00.174Z,36.90
2022-08-03T11:27:29.941Z,35.00
2022-08-03T11:30:01.773Z,35.20
2022-08-03T11:32:59.750Z,34.60
2022-08-03T11:35:31.447Z,34.40
2022-08-03T11:38:08.442Z,34.50
2022-08-03T11:40:40.620Z,32.60
2022-08-03T11:43:10.518Z,33.30
2022-08-03T11:45:39.538Z,35.10
2022-08-03T11:48:17.187Z,33.60
2022-08-03T11:50:46.835Z,33.00
2022-08-03T11:53:18.173Z,32.80
2022-08-03T11:55:48.979Z,34.20
2022-08-03T11:58:58.107Z,32.70
2022-08-03T12:01:10.571Z,32.40
2022-08-03T12:03:38.899Z,34.20
2022-08-03T12:06:12.642Z,34.00
2022-08-03T12:08:42.854Z,34.20
2022-08-03T12:11:12.516Z,34.00
2022-08-03T12:14:35.719Z,34.70
2022-08-03T12:16:32.019Z,34.50
2022-08-03T12:19:03.275Z,33.90
2022-08-03T12:21:33.164Z,33.40
2022-08-03T12:24:03.717Z,33.40
2022-08-03T12:26:45.407Z,33.30
2022-08-03T12:29:27.570Z,33.80
2022-08-03T12:31:56.441Z,33.90
2022-08-03T12:34:24.849Z,34.80
2022-08-03T12:37:01.033Z,34.70
2022-08-03T12:39:31.615Z,34.50
2022-08-03T12:42:00.014Z,34.50
2022-08-03T12:44:32.249Z,34.50
2022-08-03T12:47:01.789Z,34.30
2022-08-03T12:49:30.634Z,34.90
2022-08-03T12:52:05.507Z,36.30
2022-08-03T12:54:36.095Z,35.60
2022-08-03T12:57:06.741Z,35.70
2022-08-03T12:59:40.674Z,34.10
2022-08-03T13:02:17.767Z,35.30
2022-08-03T13:04:47.415Z,36.70
2022-08-03T13:07:19.523Z,36.90
2022-08-03T13:09:50.269Z,36.40
2022-08-03T13:12:21.158Z,36.30
2022-08-03T13:14:52.792Z,36.50
2022-08-03T13:17:21.674Z,35.90
2022-08-03T13:19:51.363Z,36.50
2022-08-03T13:22:23.290Z,36.50
2022-08-03T13:24:55.900Z,36.40
2022-08-03T13:28:04.796Z,36.50
2022-08-03T13:30:13.844Z,35.60
2022-08-03T13:32:49.325Z,37.30
2022-08-03T13:35:17.577Z,36.90
2022-08-03T13:37:48.857Z,36.20
2022-08-03T13:40:17.535Z,36.00
2022-08-03T13:42:46.109Z,36.40
2022-08-03T13:45:14.355Z,36.80
2022-08-03T13:47:42.642Z,35.80
2022-08-03T13:50:10.980Z,36.50
2022-08-03T13:52:39.362Z,36.70
2022-08-03T13:55:10.942Z,35.40
2022-08-03T13:58:11.927Z,35.40
2022-08-03T14:00:29.444Z,37.40
2022-08-03T14:03:15.349Z,37.00
2022-08-03T14:05:44.789Z,37.40
2022-08-03T14:08:13.652Z,37.00
2022-08-03T14:10:45.481Z,37.40
2022-08-03T14:13:17.753Z,37.10
2022-08-03T14:15:49.732Z,37.00
2022-08-03T14:18:27.844Z,37.60
2022-08-03T14:21:03.520Z,36.70
2022-08-03T14:23:34.484Z,37.10
2022-08-03T14:26:04.550Z,38.10
2022-08-03T14:28:32.992Z,38.40
2022-08-03T14:31:01.315Z,38.20
2022-08-03T14:33:29.677Z,38.10
2022-08-03T14:35:58.209Z,37.80
2022-08-03T14:38:26.782Z,38.10
2022-08-03T14:40:55.187Z,38.50
2022-08-03T14:43:25.044Z,39.50
2022-08-03T14:45:54.378Z,39.50
2022-08-03T14:50:29.739Z,38.90
2022-08-03T14:51:12.312Z,39.30
2022-08-03T14:53:41.663Z,39.40
2022-08-03T14:56:10.831Z,38.60
2022-08-03T14:58:40.839Z,39.60
2022-08-03T15:02:05.090Z,39.70
2022-08-03T15:03:57.586Z,39.20
2022-08-03T15:06:25.897Z,38.60
2022-08-03T15:11:42.983Z,39.10
2022-08-03T15:14:13.337Z,39.50
2022-08-03T15:16:43.331Z,39.40
2022-08-03T15:20:03.978Z,40.90
2022-08-03T15:22:00.984Z,39.50
2022-08-03T15:24:29.835Z,41.00
2022-08-03T15:26:58.241Z,40.50
2022-08-03T15:30:06.953Z,40.40
2022-08-03T15:32:16.761Z,41.20
2022-08-03T15:34:50.217Z,41.30
2022-08-03T15:37:20.803Z,40.40
2022-08-03T15:39:58.345Z,40.70
2022-08-03T15:42:30.229Z,41.50
2022-08-03T15:45:00.487Z,42.30
2022-08-03T15:47:28.852Z,42.70
2022-08-03T15:49:57.301Z,43.70
2022-08-03T15:52:25.714Z,43.30
2022-08-03T15:54:54.123Z,41.80
2022-08-03T15:57:23.469Z,42.30
2022-08-03T15:59:51.955Z,42.60
2022-08-03T16:02:21.610Z,42.30
2022-08-03T16:04:49.951Z,42.90
2022-08-03T16:07:38.318Z,42.90
2022-08-03T16:10:07.819Z,42.40
2022-08-03T16:12:36.156Z,43.10
2022-08-03T16:15:04.794Z,43.00
2022-08-03T16:17:34.902Z,43.90
2022-08-03T16:20:07.493Z,43.70
2022-08-03T16:22:44.495Z,43.50
2022-08-03T16:25:18.510Z,43.50
2022-08-03T16:28:07.058Z,44.20
2022-08-03T16:30:35.840Z,43.60
2022-08-03T16:33:05.754Z,43.00
2022-08-03T16:35:34.203Z,43.20
2022-08-03T16:38:06.526Z,44.40
2022-08-03T16:40:37.925Z,44.80
2022-08-03T16:43:18.178Z,44.50
2022-08-03T16:45:47.575Z,44.60
2022-08-03T16:48:17.527Z,43.90
2022-08-03T16:50:46.440Z,44.80
2022-08-03T16:53:15.598Z,44.80
2022-08-03T16:55:53.211Z,43.20
2022-08-03T16:58:34.432Z,43.50
2022-08-03T17:01:23.488Z,44.20
2022-08-03T17:04:01.698Z,45.50
2022-08-03T17:06:34.230Z,45.90
2022-08-03T17:09:09.119Z,45.90
2022-08-03T17:11:44.113Z,46.10
2022-08-03T17:14:17.165Z,45.80
2022-08-03T17:16:52.414Z,46.10
2022-08-03T17:19:24.986Z,45.30
2022-08-03T17:22:04.017Z,45.90
2022-08-03T17:24:35.802Z,45.40
2022-08-03T17:28:42.241Z,45.70
2022-08-03T17:30:08.491Z,45.20
2022-08-03T17:32:42.792Z,46.80
2022-08-03T17:35:22.773Z,46.50
2022-08-03T17:38:02.647Z,46.20
2022-08-03T17:40:32.690Z,46.80
2022-08-03T17:44:12.831Z,47.40
2022-08-03T17:45:52.778Z,47.50
2022-08-03T17:48:25.230Z,48.40
2022-08-03T17:51:00.241Z,49.20
2022-08-03T17:53:33.518Z,47.90
2022-08-03T17:56:44.414Z,48.40
2022-08-03T17:59:11.548Z,48.70
2022-08-03T18:02:12.294Z,49.20
2022-08-03T18:04:55.530Z,49.70
2022-08-03T18:07:41.171Z,50.80
2022-08-03T18:10:15.402Z,51.30
2022-08-03T18:12:53.569Z,51.30
2022-08-03T18:15:30.422Z,51.90
2022-08-03T18:18:10.481Z,51.40
2022-08-03T18:20:42.404Z,52.10
2022-08-03T18:23:24.801Z,52.50
2022-08-03T18:26:07.139Z,52.50
2022-08-03T18:28:39.408Z,53.00
2022-08-03T18:31:12.758Z,53.00
2022-08-03T18:34:17.079Z,53.60
2022-08-03T18:36:55.847Z,54.80
2022-08-03T18:39:26.436Z,55.80
2022-08-03T18:41:54.783Z,54.40
2022-08-03T18:44:53.276Z,54.70
2022-08-03T18:47:50.617Z,54.90
2022-08-03T18:50:31.209Z,57.00
2022-08-03T18:53:16.460Z,56.90
2022-08-03T18:56:01.940Z,57.90
2022-08-03T18:58:40.759Z,56.70
2022-08-03T19:01:57.908Z,57.10
2022-08-03T19:04:13.524Z,57.00
2022-08-03T19:06:45.879Z,59.60
2022-08-03T19:09:27.987Z,62.40
2022-08-03T19:12:12.796Z,62.20
2022-08-03T19:14:54.901Z,63.20
2022-08-03T19:17:29.466Z,63.10
2022-08-03T19:20:01.610Z,62.60
2022-08-03T19:22:30.289Z,63.60
2022-08-03T19:25:02.426Z,67.40
2022-08-03T19:27:33.324Z,65.60
2022-08-03T19:30:19.978Z,67.90
2022-08-03T19:32:54.971Z,69.60
2022-08-03T19:35:51.755Z,67.80
2022-08-03T19:38:12.952Z,69.30
2022-08-03T19:40:50.963Z,68.70
2022-08-03T19:43:25.933Z,67.40
2022-08-03T19:46:06.938Z,68.00
2022-08-03T19:48:37.018Z,67.40
2022-08-03T19:51:12.209Z,69.60
2022-08-03T19:53:44.992Z,68.70
2022-08-03T19:56:14.376Z,69.80
2022-08-03T19:58:45.841Z,69.50
2022-08-03T20:01:21.780Z,68.90
2022-08-03T20:03:51.586Z,70.20
2022-08-03T20:06:23.638Z,70.40
2022-08-03T20:08:52.816Z,68.90
2022-08-03T20:11:28.878Z,69.50
2022-08-03T20:13:59.691Z,70.10
2022-08-03T20:16:28.021Z,69.40
2022-08-03T20:18:56.298Z,70.20
2022-08-03T20:21:26.159Z,71.50
2022-08-03T20:24:01.978Z,71.70
2022-08-03T20:26:33.604Z,69.00
2022-08-03T20:29:10.092Z,70.10
2022-08-03T20:31:38.689Z,70.80
2022-08-03T20:34:07.626Z,71.80
2022-08-03T20:36:38.193Z,71.20
2022-08-03T20:39:07.711Z,71.90
2022-08-03T20:41:36.863Z,72.10
2022-08-03T20:44:07.989Z,71.40
2022-08-03T20:46:50.231Z,71.40
2022-08-03T20:49:25.038Z,70.90
2022-08-03T20:51:55.076Z,70.50
2022-08-03T20:54:29.402Z,70.40
2022-08-03T20:57:03.755Z,71.40
2022-08-03T20:59:50.641Z,70.50
2022-08-03T21:02:28.912Z,70.70
2022-08-03T21:05:03.424Z,71.80
2022-08-03T21:08:04.301Z,71.10
2022-08-03T21:10:32.010Z,70.80
2022-08-03T21:13:16.201Z,71.00
2022-08-03T21:16:12.835Z,71.20
2022-08-03T21:18:45.895Z,72.50
2022-08-03T21:21:17.004Z,71.90
2022-08-03T21:23:48.774Z,70.70
2022-08-03T21:26:19.696Z,69.80
2022-08-03T21:28:49.481Z,68.50
2022-08-03T21:31:24.847Z,69.80
2022-08-03T21:33:56.629Z,70.30
2022-08-03T21:36:25.850Z,71.10
2022-08-03T21:38:56.160Z,71.60
2022-08-03T21:41:26.170Z,71.10
2022-08-03T21:43:54.724Z,72.20
2022-08-03T21:46:25.195Z,73.10
2022-08-03T21:50:07.321Z,71.90
2022-08-03T21:51:50.555Z,71.50
2022-08-03T21:54:21.544Z,72.00
2022-08-03T21:56:52.768Z,71.50
2022-08-03T21:59:23.234Z,70.50
2022-08-03T22:01:55.377Z,71.20
2022-08-03T22:04:53.366Z,69.70
2022-08-03T22:07:16.380Z,69.60
2022-08-03T22:09:50.092Z,70.60
2022-08-03T22:12:23.358Z,70.80
2022-08-03T22:14:53.599Z,71.10
2022-08-03T22:17:53.646Z,69.60
2022-08-03T22:20:21.918Z,68.90
2022-08-03T22:22:56.468Z,69.20
2022-08-03T22:25:29.963Z,69.50
2022-08-03T22:28:00.188Z,69.50
2022-08-03T22:30:29.096Z,68.40
2022-08-03T22:32:59.147Z,67.90
2022-08-03T22:35:28.566Z,67.60
2022-08-03T22:38:00.030Z,69.00
2022-08-03T22:40:29.188Z,69.90
2022-08-03T22:42:58.950Z,70.30
2022-08-03T22:46:06.817Z,72.10
2022-08-03T22:48:18.241Z,71.40
2022-08-03T22:50:47.292Z,70.70
2022-08-03T22:53:19.538Z,71.00
2022-08-03T22:55:49.824Z,71.90
2022-08-03T22:58:18.430Z,71.70
2022-08-03T23:00:53.748Z,70.70
2022-08-03T23:03:58.721Z,71.50
2022-08-03T23:06:20.657Z,72.00
2022-08-03T23:08:51.051Z,72.90
2022-08-03T23:11:20.399Z,71.80
2022-08-03T23:13:51.098Z,71.80
2022-08-03T23:16:28.554Z,72.40
2022-08-03T23:19:16.736Z,71.20
2022-08-03T23:21:53.924Z,71.90
2022-08-03T23:24:32.162Z,73.00
2022-08-03T23:27:00.819Z,72.00
2022-08-03T23:29:31.573Z,71.50
2022-08-03T23:32:00.431Z,71.50
2022-08-03T23:34:49.743Z,71.00
2022-08-03T23:37:20.006Z,71.50
2022-08-03T23:39:50.311Z,70.30
2022-08-03T23:42:20.598Z,70.70
2022-08-03T23:44:54.663Z,70.00
2022-08-03T23:47:23.602Z,69.70
2022-08-03T23:49:53.585Z,68.80
2022-08-03T23:52:33.985Z,68.80
2022-08-03T23:55:18.229Z,68.80
2022-08-03T23:58:02.743Z,68.70
